createdAt,value
2022-08-23T00:01:29.175Z,99.90
2022-08-23T00:04:02.819Z,99.90
2022-08-23T00:06:30.179Z,99.90
2022-08-23T00:08:57.196Z,99.90
2022-08-23T00:11:45.951Z,99.90
2022-08-23T00:14:25.522Z,99.90
2022-08-23T00:16:52.920Z,99.90
2022-08-23T00:19:21.126Z,99.90
2022-08-23T00:21:48.661Z,99.90
2022-08-23T00:24:16.729Z,99.90
2022-08-23T00:27:04.895Z,99.90
2022-08-23T00:29:37.467Z,99.90
2022-08-23T00:32:07.773Z,99.90
2022-08-23T00:34:35.772Z,99.90
2022-08-23T00:37:03.584Z,99.90
2022-08-23T00:39:30.543Z,99.90
2022-08-23T00:42:30.330Z,99.90
2022-08-23T00:45:20.417Z,99.90
2022-08-23T00:47:47.394Z,99.90
2022-08-23T00:50:30.229Z,99.90
2022-08-23T00:53:12.906Z,99.90
2022-08-23T00:55:42.427Z,99.90
2022-08-23T00:58:09.941Z,99.90
2022-08-23T01:00:37.323Z,99.90
2022-08-23T01:03:07.490Z,99.90
2022-08-23T01:06:07.774Z,99.90
2022-08-23T01:08:37.150Z,99.90
2022-08-23T01:11:14.103Z,99.90
2022-08-23T01:13:58.251Z,99.90
2022-08-23T01:16:33.739Z,99.90
2022-08-23T01:19:03.105Z,99.90
2022-08-23T01:21:41.174Z,99.90
2022-08-23T01:24:19.106Z,99.90
2022-08-23T01:26:58.645Z,99.90
2022-08-23T01:29:25.666Z,99.90
2022-08-23T01:31:53.738Z,99.90
2022-08-23T01:34:26.975Z,99.90
2022-08-23T01:36:55.277Z,99.90
2022-08-23T01:39:23.520Z,99.90
2022-08-23T01:41:51.289Z,99.90
2022-08-23T01:44:18.770Z,99.90
2022-08-23T01:46:46.814Z,99.90
2022-08-23T01:49:13.995Z,99.90
2022-08-23T01:51:41.993Z,99.90
2022-08-23T01:54:10.620Z,99.90
2022-08-23T01:56:39.938Z,99.90
2022-08-23T01:59:11.658Z,99.90
2022-08-23T02:01:47.627Z,99.90
2022-08-23T02:04:15.461Z,99.90
2022-08-23T02:06:42.592Z,99.90
2022-08-23T02:09:17.757Z,99.90
2022-08-23T02:11:46.687Z,99.90
2022-08-23T02:14:18.619Z,99.90
2022-08-23T02:17:03.887Z,99.90
2022-08-23T02:19:35.187Z,99.90
2022-08-23T02:22:03.795Z,99.90
2022-08-23T02:24:31.770Z,99.90
2022-08-23T02:27:02.615Z,99.90
2022-08-23T02:29:33.090Z,99.90
2022-08-23T02:32:04.323Z,99.90
2022-08-23T02:34:38.297Z,99.90
2022-08-23T02:37:09.715Z,99.90
2022-08-23T02:39:39.018Z,99.90
2022-08-23T02:42:11.921Z,99.90
2022-08-23T02:44:42.174Z,99.90
2022-08-23T02:47:09.411Z,99.90
2022-08-23T02:49:38.977Z,99.90
2022-08-23T02:52:07.105Z,99.90
2022-08-23T02:54:36.160Z,99.90
2022-08-23T02:57:03.281Z,99.90
2022-08-23T02:59:30.684Z,99.90
2022-08-23T03:01:59.024Z,99.90
2022-08-23T03:04:31.273Z,99.90
2022-08-23T03:06:58.231Z,99.90
2022-08-23T03:09:25.448Z,99.90
2022-08-23T03:11:52.383Z,99.90
2022-08-23T03:14:21.009Z,99.90
2022-08-23T03:16:49.140Z,99.90
2022-08-23T03:19:16.100Z,99.90
2022-08-23T03:21:43.517Z,99.90
2022-08-23T03:24:11.943Z,99.90
2022-08-23T03:26:45.928Z,99.90
2022-08-23T03:29:15.083Z,99.90
2022-08-23T03:32:01.450Z,99.90
2022-08-23T03:34:31.778Z,99.90
2022-08-23T03:36:59.102Z,99.90
2022-08-23T03:39:26.719Z,99.90
2022-08-23T03:41:55.324Z,99.90
2022-08-23T03:44:22.587Z,99.90
2022-08-23T03:46:50.988Z,99.90
2022-08-23T03:49:17.987Z,99.90
2022-08-23T03:51:51.542Z,99.90
2022-08-23T03:54:18.456Z,99.90
2022-08-23T03:57:00.522Z,99.90
2022-08-23T03:59:31.639Z,99.90
2022-08-23T04:01:59.009Z,99.90
2022-08-23T04:04:27.784Z,99.90
2022-08-23T04:07:19.099Z,99.90
2022-08-23T04:09:47.092Z,99.90
2022-08-23T04:12:17.809Z,99.90
2022-08-23T04:14:45.745Z,99.90
2022-08-23T04:17:14.833Z,99.90
2022-08-23T04:19:42.657Z,99.90
2022-08-23T04:22:14.850Z,99.90
2022-08-23T04:24:42.509Z,99.90
2022-08-23T04:27:10.852Z,99.90
2022-08-23T04:29:39.983Z,99.90
2022-08-23T04:32:11.541Z,99.90
2022-08-23T04:34:40.171Z,99.90
2022-08-23T04:37:09.558Z,99.90
2022-08-23T04:39:58.020Z,99.90
2022-08-23T04:42:29.978Z,99.90
2022-08-23T04:44:57.619Z,99.90
2022-08-23T04:47:24.451Z,99.90
2022-08-23T04:49:53.074Z,99.90
2022-08-23T04:52:19.970Z,99.90
2022-08-23T04:54:48.581Z,99.90
2022-08-23T04:57:35.671Z,99.90
2022-08-23T05:00:03.446Z,99.90
2022-08-23T05:02:30.272Z,99.90
2022-08-23T05:04:57.845Z,99.90
2022-08-23T05:07:31.924Z,99.90
2022-08-23T05:10:13.140Z,99.90
2022-08-23T05:12:42.683Z,99.90
2022-08-23T05:15:10.559Z,99.90
2022-08-23T05:17:40.574Z,99.90
2022-08-23T05:20:09.110Z,99.90
2022-08-23T05:22:38.544Z,99.90
2022-08-23T05:25:21.888Z,99.90
2022-08-23T05:27:50.609Z,99.90
2022-08-23T05:30:17.770Z,99.90
2022-08-23T05:32:44.807Z,99.90
2022-08-23T05:35:13.006Z,99.90
2022-08-23T05:37:43.312Z,99.90
2022-08-23T05:40:11.972Z,99.90
2022-08-23T05:42:49.708Z,99.90
2022-08-23T05:45:21.722Z,99.90
2022-08-23T05:47:49.822Z,99.90
2022-08-23T05:50:26.078Z,99.90
2022-08-23T05:52:52.875Z,99.90
2022-08-23T05:55:21.919Z,99.90
2022-08-23T05:58:15.481Z,99.90
2022-08-23T06:00:43.416Z,99.90
2022-08-23T06:03:10.359Z,99.90
2022-08-23T06:05:41.875Z,99.90
2022-08-23T06:08:09.719Z,99.90
2022-08-23T06:10:41.743Z,99.90
2022-08-23T06:13:26.920Z,99.90
2022-08-23T06:15:54.236Z,99.90
2022-08-23T06:18:22.309Z,99.90
2022-08-23T06:21:05.431Z,99.90
2022-08-23T06:23:43.057Z,99.90
2022-08-23T06:26:23.001Z,99.90
2022-08-23T06:28:54.625Z,99.90
2022-08-23T06:31:56.090Z,99.90
2022-08-23T06:34:36.275Z,99.90
2022-08-23T06:37:12.354Z,99.90
2022-08-23T06:39:58.563Z,99.90
2022-08-23T06:42:47.259Z,99.90
2022-08-23T06:45:19.421Z,99.90
2022-08-23T06:47:57.409Z,99.90
2022-08-23T06:50:24.307Z,99.90
2022-08-23T06:53:17.330Z,99.90
2022-08-23T06:55:54.809Z,99.90
2022-08-23T06:58:26.219Z,99.90
2022-08-23T07:01:44.235Z,99.90
2022-08-23T07:04:19.171Z,99.90
2022-08-23T07:07:09.470Z,99.90
2022-08-23T07:09:38.295Z,99.90
2022-08-23T07:12:06.517Z,99.90
2022-08-23T07:14:34.302Z,99.90
2022-08-23T07:17:03.343Z,99.90
2022-08-23T07:19:32.907Z,99.90
2022-08-23T07:22:01.535Z,99.90
2022-08-23T07:24:33.382Z,99.90
2022-08-23T07:27:07.096Z,99.90
2022-08-23T07:29:40.406Z,99.90
2022-08-23T07:32:08.609Z,99.90
2022-08-23T07:34:37.005Z,99.90
2022-08-23T07:37:15.250Z,99.90
2022-08-23T07:39:44.434Z,99.90
2022-08-23T07:42:23.553Z,99.90
2022-08-23T07:44:53.974Z,99.90
2022-08-23T07:47:22.627Z,99.90
2022-08-23T07:49:49.672Z,99.90
2022-08-23T07:52:16.623Z,99.90
2022-08-23T07:54:45.881Z,99.90
2022-08-23T07:57:48.112Z,99.90
2022-08-23T08:00:30.791Z,99.90
2022-08-23T08:03:10.450Z,99.90
2022-08-23T08:05:57.732Z,99.90
2022-08-23T08:08:24.594Z,99.90
2022-08-23T08:10:54.239Z,99.90
2022-08-23T08:13:21.338Z,99.90
2022-08-23T08:15:48.538Z,99.90
2022-08-23T08:18:16.238Z,99.90
2022-08-23T08:21:06.121Z,99.90
2022-08-23T08:23:51.688Z,99.90
2022-08-23T08:26:34.861Z,99.90
2022-08-23T08:29:02.919Z,99.90
2022-08-23T08:31:30.400Z,99.90
2022-08-23T08:33:57.412Z,99.90
2022-08-23T08:36:49.061Z,99.90
2022-08-23T08:39:23.726Z,99.90
2022-08-23T08:42:12.824Z,99.90
2022-08-23T08:44:51.351Z,99.90
2022-08-23T08:48:00.432Z,99.90
2022-08-23T08:50:41.489Z,99.90
2022-08-23T08:53:16.268Z,99.90
2022-08-23T08:56:22.446Z,99.90
2022-08-23T08:59:03.583Z,99.90
2022-08-23T09:01:34.916Z,99.90
2022-08-23T09:04:03.414Z,99.90
2022-08-23T09:06:53.183Z,99.90
2022-08-23T09:09:36.974Z,99.90
2022-08-23T09:12:18.213Z,99.90
2022-08-23T09:15:08.599Z,99.90
2022-08-23T09:17:55.850Z,99.90
2022-08-23T09:20:32.681Z,99.90
2022-08-23T09:23:06.609Z,99.90
2022-08-23T09:25:34.551Z,99.90
2022-08-23T09:28:08.183Z,99.90
2022-08-23T09:30:54.940Z,99.90
2022-08-23T09:33:39.074Z,99.90
2022-08-23T09:36:15.529Z,99.90
2022-08-23T09:38:51.745Z,99.90
2022-08-23T09:41:27.763Z,99.90
2022-08-23T09:43:59.092Z,99.90
2022-08-23T09:46:31.051Z,99.90
2022-08-23T09:49:01.265Z,99.90
2022-08-23T09:51:41.487Z,99.90
2022-08-23T09:54:23.124Z,99.90
2022-08-23T09:56:54.359Z,99.90
2022-08-23T09:59:37.145Z,99.90
2022-08-23T10:02:33.225Z,99.90
2022-08-23T10:05:15.696Z,99.90
2022-08-23T10:07:52.790Z,99.90
2022-08-23T10:10:38.499Z,98.80
2022-08-23T10:13:07.701Z,98.20
2022-08-23T10:16:01.439Z,98.00
2022-08-23T10:18:46.412Z,97.80
2022-08-23T10:21:31.754Z,97.30
2022-08-23T10:24:28.265Z,97.30
2022-08-23T10:27:35.756Z,98.00
2022-08-23T10:30:12.505Z,96.50
2022-08-23T10:32:54.250Z,96.50
2022-08-23T10:35:51.642Z,96.70
2022-08-23T10:38:32.319Z,96.20
2022-08-23T10:41:25.238Z,94.70
2022-08-23T10:44:19.233Z,94.90
2022-08-23T10:47:08.024Z,95.20
2022-08-23T10:49:39.790Z,94.30
2022-08-23T10:52:13.073Z,94.00
2022-08-23T10:54:59.644Z,94.90
2022-08-23T10:57:40.343Z,94.20
2022-08-23T11:00:17.308Z,94.30
2022-08-23T11:02:56.134Z,94.50
2022-08-23T11:05:35.246Z,93.20
2022-08-23T11:08:29.983Z,93.90
2022-08-23T11:10:57.231Z,94.80
2022-08-23T11:13:32.544Z,94.10
2022-08-23T11:16:29.037Z,91.60
2022-08-23T11:18:56.253Z,91.30
2022-08-23T11:21:38.511Z,91.10
2022-08-23T11:24:14.253Z,92.40
2022-08-23T11:26:44.855Z,91.10
2022-08-23T11:29:21.389Z,92.70
2022-08-23T11:32:04.770Z,91.40
2022-08-23T11:34:54.256Z,90.90
2022-08-23T11:37:22.004Z,90.80
2022-08-23T11:40:00.542Z,90.60
2022-08-23T11:42:42.883Z,89.60
2022-08-23T11:45:22.244Z,89.40
2022-08-23T11:48:22.720Z,87.20
2022-08-23T11:50:59.814Z,86.90
2022-08-23T11:53:44.769Z,86.20
2022-08-23T11:56:33.061Z,86.00
2022-08-23T11:59:34.987Z,86.70
2022-08-23T12:02:32.997Z,86.30
2022-08-23T12:05:12.367Z,85.30
2022-08-23T12:07:45.127Z,84.00
2022-08-23T12:10:16.762Z,84.70
2022-08-23T12:12:47.153Z,86.00
2022-08-23T12:15:17.236Z,86.00
2022-08-23T12:17:44.019Z,84.80
2022-08-23T12:20:17.168Z,83.90
2022-08-23T12:23:11.437Z,83.60
2022-08-23T12:25:38.453Z,81.30
2022-08-23T12:28:31.497Z,81.70
2022-08-23T12:31:18.794Z,81.30
2022-08-23T12:34:17.227Z,80.20
2022-08-23T12:36:59.024Z,82.20
2022-08-23T12:39:32.952Z,81.30
2022-08-23T12:42:24.146Z,81.30
2022-08-23T12:45:03.658Z,81.60
2022-08-23T12:47:30.851Z,81.30
2022-08-23T12:50:06.167Z,81.70
2022-08-23T12:52:35.746Z,79.60
2022-08-23T12:55:04.674Z,78.90
2022-08-23T12:57:38.459Z,79.70
2022-08-23T13:00:22.446Z,78.40
2022-08-23T13:03:12.234Z,77.80
2022-08-23T13:05:41.706Z,77.80
2022-08-23T13:08:12.374Z,76.60
2022-08-23T13:10:41.601Z,76.00
2022-08-23T13:13:12.096Z,78.70
2022-08-23T13:15:55.045Z,80.40
2022-08-23T13:18:31.905Z,77.10
2022-08-23T13:21:25.022Z,75.80
2022-08-23T13:23:54.836Z,77.60
2022-08-23T13:26:37.046Z,75.60
2022-08-23T13:29:30.192Z,74.80
2022-08-23T13:32:06.895Z,74.90
2022-08-23T13:34:56.329Z,76.10
2022-08-23T13:37:29.881Z,76.60
2022-08-23T13:40:00.108Z,77.40
2022-08-23T13:42:36.609Z,77.90
2022-08-23T13:45:09.280Z,75.50
2022-08-23T13:47:37.729Z,73.00
2022-08-23T13:50:11.961Z,73.20
2022-08-23T13:53:02.795Z,74.30
2022-08-23T13:55:27.109Z,72.00
2022-08-23T13:57:55.925Z,73.00
2022-08-23T14:00:23.649Z,72.50
2022-08-23T14:02:50.872Z,72.20
2022-08-23T14:05:20.470Z,72.70
2022-08-23T14:07:52.661Z,73.40
2022-08-23T14:10:23.503Z,74.30
2022-08-23T14:12:53.434Z,75.30
2022-08-23T14:15:54.013Z,73.50
2022-08-23T14:18:09.300Z,71.00
2022-08-23T14:20:44.495Z,70.60
2022-08-23T14:23:13.212Z,72.30
2022-08-23T14:25:40.236Z,72.50
2022-08-23T14:28:07.012Z,69.00
2022-08-23T14:30:38.480Z,68.80
2022-08-23T14:33:06.337Z,69.30
2022-08-23T14:35:33.473Z,68.40
2022-08-23T14:38:04.501Z,70.90
2022-08-23T14:40:32.311Z,71.40
2022-08-23T14:43:00.358Z,72.10
2022-08-23T14:45:27.436Z,69.70
2022-08-23T14:47:54.225Z,69.50
2022-08-23T14:50:21.480Z,71.30
2022-08-23T14:52:48.422Z,70.50
2022-08-23T14:55:15.950Z,70.80
2022-08-23T14:57:43.030Z,71.10
2022-08-23T15:00:14.054Z,73.30
2022-08-23T15:02:50.019Z,70.00
2022-08-23T15:05:17.297Z,71.60
2022-08-23T15:07:44.461Z,71.20
2022-08-23T15:10:49.959Z,70.00
2022-08-23T15:13:14.055Z,70.00
2022-08-23T15:15:46.287Z,70.50
2022-08-23T15:18:16.781Z,67.70
2022-08-23T15:20:43.753Z,67.50
2022-08-23T15:23:11.244Z,69.10
2022-08-23T15:25:40.714Z,70.80
2022-08-23T15:28:13.068Z,70.70
2022-08-23T15:30:41.576Z,72.00
2022-08-23T15:33:08.849Z,71.50
2022-08-23T15:35:41.404Z,70.60
2022-08-23T15:38:09.570Z,71.60
2022-08-23T15:40:36.686Z,73.00
2022-08-23T15:43:04.028Z,73.80
2022-08-23T15:45:35.455Z,69.90
2022-08-23T15:48:12.077Z,72.20
2022-08-23T15:50:42.525Z,70.90
2022-08-23T15:53:09.333Z,70.50
2022-08-23T15:55:36.264Z,70.90
2022-08-23T15:58:04.514Z,71.40
2022-08-23T16:00:31.925Z,69.00
2022-08-23T16:03:19.229Z,68.90
2022-08-23T16:05:48.010Z,68.40
2022-08-23T16:08:26.942Z,68.90
2022-08-23T16:10:54.774Z,70.90
2022-08-23T16:13:22.328Z,73.80
2022-08-23T16:15:49.605Z,72.30
2022-08-23T16:18:16.514Z,72.70
2022-08-23T16:20:44.027Z,73.10
2022-08-23T16:23:11.979Z,73.30
2022-08-23T16:25:39.840Z,72.90
2022-08-23T16:28:07.440Z,70.40
2022-08-23T16:30:35.407Z,72.70
2022-08-23T16:33:02.395Z,70.00
2022-08-23T16:35:29.518Z,76.90
2022-08-23T16:37:56.340Z,73.00
2022-08-23T16:40:23.266Z,73.40
2022-08-23T16:42:50.248Z,72.80
2022-08-23T16:45:17.770Z,74.10
2022-08-23T16:47:53.181Z,73.50
2022-08-23T16:50:20.454Z,75.50
2022-08-23T16:52:47.304Z,80.50
2022-08-23T16:55:14.397Z,79.60
2022-08-23T16:57:41.884Z,82.60
2022-08-23T17:00:12.903Z,79.00
2022-08-23T17:02:42.083Z,82.90
2022-08-23T17:05:12.200Z,84.50
2022-08-23T17:07:39.490Z,89.70
2022-08-23T17:10:07.999Z,89.10
2022-08-23T17:12:38.706Z,91.20
2022-08-23T17:15:07.167Z,89.00
2022-08-23T17:17:33.987Z,89.70
2022-08-23T17:20:00.799Z,89.20
2022-08-23T17:22:27.727Z,88.90
2022-08-23T17:24:54.545Z,93.50
2022-08-23T17:27:21.708Z,93.50
2022-08-23T17:29:48.571Z,93.30
2022-08-23T17:32:18.487Z,93.90
2022-08-23T17:34:45.310Z,94.20
2022-08-23T17:37:21.494Z,94.40
2022-08-23T17:39:49.303Z,95.00
2022-08-23T17:42:17.496Z,95.20
2022-08-23T17:44:45.269Z,96.60
2022-08-23T17:47:16.248Z,97.50
2022-08-23T17:49:44.979Z,99.90
2022-08-23T17:52:12.330Z,99.90
2022-08-23T17:54:40.503Z,99.90
2022-08-23T17:57:09.481Z,99.90
2022-08-23T17:59:37.932Z,99.90
2022-08-23T18:02:05.332Z,99.90
2022-08-23T18:04:32.444Z,99.90
2022-08-23T18:06:59.404Z,99.90
2022-08-23T18:09:26.446Z,99.90
2022-08-23T18:11:53.914Z,99.90
2022-08-23T18:14:20.868Z,99.90
2022-08-23T18:16:48.296Z,99.90
2022-08-23T18:19:16.018Z,99.90
2022-08-23T18:21:43.866Z,99.90
2022-08-23T18:24:11.224Z,99.90
2022-08-23T18:26:56.733Z,99.90
2022-08-23T18:29:24.515Z,99.90
2022-08-23T18:31:51.596Z,99.90
2022-08-23T18:34:19.217Z,99.90
2022-08-23T18:36:47.013Z,99.90
2022-08-23T18:39:15.008Z,99.90
2022-08-23T18:41:42.796Z,99.90
2022-08-23T18:44:10.981Z,99.90
2022-08-23T18:46:41.029Z,99.90
2022-08-23T18:49:10.102Z,99.90
2022-08-23T18:51:38.267Z,99.90
2022-08-23T18:54:05.824Z,99.90
2022-08-23T18:56:33.686Z,99.90
2022-08-23T18:59:00.944Z,99.90
2022-08-23T19:01:30.996Z,99.90
2022-08-23T19:03:59.810Z,99.90
2022-08-23T19:06:28.118Z,99.90
2022-08-23T19:08:55.131Z,99.90
2022-08-23T19:11:23.214Z,99.90
2022-08-23T19:13:50.998Z,99.90
2022-08-23T19:16:19.704Z,99.90
2022-08-23T19:18:50.348Z,99.90
2022-08-23T19:21:21.432Z,99.90
2022-08-23T19:23:50.270Z,99.90
2022-08-23T19:26:20.180Z,99.90
2022-08-23T19:28:47.622Z,99.90
2022-08-23T19:31:14.755Z,99.90
2022-08-23T19:33:41.765Z,99.90
2022-08-23T19:36:23.663Z,99.90
2022-08-23T19:38:57.098Z,99.90
2022-08-23T19:41:24.551Z,99.90
2022-08-23T19:43:51.504Z,99.90
2022-08-23T19:46:18.619Z,99.90
2022-08-23T19:48:47.341Z,99.90
2022-08-23T19:51:15.914Z,99.90
2022-08-23T19:54:03.460Z,99.90
2022-08-23T19:56:46.891Z,99.90
2022-08-23T19:59:20.403Z,99.90
2022-08-23T20:01:49.226Z,99.90
2022-08-23T20:04:16.539Z,99.90
2022-08-23T20:06:43.687Z,99.90
2022-08-23T20:09:11.283Z,99.90
2022-08-23T20:11:38.396Z,99.90
2022-08-23T20:14:05.887Z,99.90
2022-08-23T20:16:34.148Z,99.90
2022-08-23T20:19:01.440Z,99.90
2022-08-23T20:21:29.110Z,99.90
2022-08-23T20:24:03.754Z,99.90
2022-08-23T20:26:41.770Z,99.90
2022-08-23T20:29:14.579Z,99.90
2022-08-23T20:31:53.210Z,99.90
2022-08-23T20:34:20.773Z,99.90
2022-08-23T20:36:47.732Z,99.90
2022-08-23T20:39:17.446Z,99.90
2022-08-23T20:41:47.973Z,99.90
2022-08-23T20:44:15.312Z,99.90
2022-08-23T20:46:44.112Z,99.90
2022-08-23T20:49:11.653Z,99.90
2022-08-23T20:51:39.392Z,99.90
2022-08-23T20:54:07.246Z,99.90
2022-08-23T20:56:35.858Z,99.90
2022-08-23T20:59:05.945Z,99.90
2022-08-23T21:01:32.906Z,99.90
2022-08-23T21:04:02.217Z,99.90
2022-08-23T21:06:35.789Z,99.90
2022-08-23T21:09:02.590Z,99.90
2022-08-23T21:11:29.948Z,99.90
2022-08-23T21:13:57.350Z,99.90
2022-08-23T21:16:25.195Z,99.90
2022-08-23T21:18:55.467Z,99.90
2022-08-23T21:21:24.344Z,99.90
2022-08-23T21:23:51.380Z,99.90
2022-08-23T21:26:18.352Z,99.90
2022-08-23T21:28:45.818Z,99.90
2022-08-23T21:31:16.384Z,99.90
2022-08-23T21:33:44.520Z,99.90
2022-08-23T21:36:16.852Z,99.90
2022-08-23T21:38:43.740Z,99.90
2022-08-23T21:41:34.568Z,99.90
2022-08-23T21:44:03.621Z,99.90
2022-08-23T21:46:30.479Z,99.90
2022-08-23T21:48:57.364Z,99.90
2022-08-23T21:51:24.683Z,99.90
2022-08-23T21:53:51.762Z,99.90
2022-08-23T21:56:19.248Z,99.90
2022-08-23T21:58:46.540Z,99.90
2022-08-23T22:01:18.591Z,99.90
2022-08-23T22:03:45.563Z,99.90
2022-08-23T22:06:15.425Z,99.90
2022-08-23T22:08:43.762Z,99.90
2022-08-23T22:11:11.761Z,99.90
2022-08-23T22:13:39.361Z,99.90
2022-08-23T22:16:07.011Z,99.90
2022-08-23T22:18:34.863Z,99.90
2022-08-23T22:21:03.569Z,99.90
2022-08-23T22:23:31.472Z,99.90
2022-08-23T22:26:00.727Z,99.90
2022-08-23T22:28:29.773Z,99.90
2022-08-23T22:31:01.187Z,99.90
2022-08-23T22:33:28.582Z,99.90
2022-08-23T22:36:01.213Z,99.90
2022-08-23T22:38:28.126Z,99.90
2022-08-23T22:40:54.922Z,99.90
2022-08-23T22:43:21.728Z,99.90
2022-08-23T22:45:56.116Z,99.90
2022-08-23T22:48:24.288Z,99.90
2022-08-23T22:50:51.559Z,99.90
2022-08-23T22:53:19.741Z,99.90
2022-08-23T22:55:50.883Z,99.90
2022-08-23T22:58:18.167Z,99.90
2022-08-23T23:00:46.202Z,99.90
2022-08-23T23:03:13.315Z,99.90
2022-08-23T23:05:41.495Z,99.90
2022-08-23T23:08:26.771Z,99.90
2022-08-23T23:11:02.095Z,99.90
2022-08-23T23:13:31.388Z,99.90
2022-08-23T23:16:02.173Z,99.90
2022-08-23T23:18:29.090Z,99.90
2022-08-23T23:21:01.546Z,99.90
2022-08-23T23:23:29.517Z,99.90
2022-08-23T23:25:57.253Z,99.90
2022-08-23T23:28:24.626Z,99.90
2022-08-23T23:30:53.763Z,99.90
2022-08-23T23:33:21.760Z,99.90
2022-08-23T23:35:49.541Z,99.90
2022-08-23T23:38:16.732Z,99.90
2022-08-23T23:40:43.847Z,99.90
2022-08-23T23:43:13.195Z,99.90
2022-08-23T23:45:41.149Z,99.90
2022-08-23T23:48:08.814Z,99.90
2022-08-23T23:50:39.624Z,99.90
2022-08-23T23:53:12.430Z,99.90
2022-08-23T23:55:39.276Z,99.90
2022-08-23T23:58:06.372Z,99.90
